sensor_id;sensor_type;location;lat;lon;timestamp;P1;durP1;ratioP1;P2;durP2;ratioP2
35522;SDS011;61478;50.820;4.330;2022-07-22T00:01:00;20.90;;;4.55;;
35522;SDS011;61478;50.820;4.330;2022-07-22T00:03:29;12.10;;;4.10;;
35522;SDS011;61478;50.820;4.330;2022-07-22T00:05:56;15.85;;;3.95;;
35522;SDS011;61478;50.820;4.330;2022-07-22T00:08:22;17.42;;;4.50;;
35522;SDS011;61478;50.820;4.330;2022-07-22T00:10:48;14.55;;;3.60;;
35522;SDS011;61478;50.820;4.330;2022-07-22T00:13:13;14.13;;;4.00;;
35522;SDS011;61478;50.820;4.330;2022-07-22T00:15:40;19.23;;;4.03;;
35522;SDS011;61478;50.820;4.330;2022-07-22T00:18:06;16.05;;;3.60;;
35522;SDS011;61478;50.820;4.330;2022-07-22T00:20:32;13.27;;;4.03;;
35522;SDS011;61478;50.820;4.330;2022-07-22T00:22:58;15.77;;;4.18;;
35522;SDS011;61478;50.820;4.330;2022-07-22T00:25:24;15.27;;;3.90;;
35522;SDS011;61478;50.820;4.330;2022-07-22T00:27:54;14.75;;;3.75;;
35522;SDS011;61478;50.820;4.330;2022-07-22T00:30:23;17.60;;;4.10;;
35522;SDS011;61478;50.820;4.330;2022-07-22T00:32:49;14.63;;;4.32;;
35522;SDS011;61478;50.820;4.330;2022-07-22T00:35:19;14.98;;;3.40;;
35522;SDS011;61478;50.820;4.330;2022-07-22T00:37:48;20.42;;;4.47;;
35522;SDS011;61478;50.820;4.330;2022-07-22T00:40:14;14.43;;;3.67;;
35522;SDS011;61478;50.820;4.330;2022-07-22T00:42:44;16.15;;;3.97;;
35522;SDS011;61478;50.820;4.330;2022-07-22T00:45:13;17.90;;;4.38;;
35522;SDS011;61478;50.820;4.330;2022-07-22T00:47:43;17.88;;;4.32;;
35522;SDS011;61478;50.820;4.330;2022-07-22T00:50:09;19.25;;;4.40;;
35522;SDS011;61478;50.820;4.330;2022-07-22T00:52:41;16.20;;;4.40;;
35522;SDS011;61478;50.820;4.330;2022-07-22T00:55:12;16.30;;;5.65;;
35522;SDS011;61478;50.820;4.330;2022-07-22T00:57:38;21.00;;;4.20;;
35522;SDS011;61478;50.820;4.330;2022-07-22T01:00:10;20.85;;;4.53;;
35522;SDS011;61478;50.820;4.330;2022-07-22T01:02:40;16.52;;;4.97;;
35522;SDS011;61478;50.820;4.330;2022-07-22T01:05:06;14.75;;;3.97;;
35522;SDS011;61478;50.820;4.330;2022-07-22T01:07:33;20.40;;;4.13;;
35522;SDS011;61478;50.820;4.330;2022-07-22T01:10:02;14.35;;;5.00;;
35522;SDS011;61478;50.820;4.330;2022-07-22T01:12:29;16.23;;;4.95;;
35522;SDS011;61478;50.820;4.330;2022-07-22T01:14:58;17.30;;;4.18;;
35522;SDS011;61478;50.820;4.330;2022-07-22T01:17:24;15.18;;;4.03;;
35522;SDS011;61478;50.820;4.330;2022-07-22T01:19:50;21.73;;;4.15;;
35522;SDS011;61478;50.820;4.330;2022-07-22T01:22:16;17.35;;;4.40;;
35522;SDS011;61478;50.820;4.330;2022-07-22T01:24:45;19.75;;;4.82;;
35522;SDS011;61478;50.820;4.330;2022-07-22T01:27:14;15.15;;;4.40;;
35522;SDS011;61478;50.820;4.330;2022-07-22T01:29:40;15.52;;;4.13;;
35522;SDS011;61478;50.820;4.330;2022-07-22T01:32:09;17.02;;;4.57;;
35522;SDS011;61478;50.820;4.330;2022-07-22T01:34:39;20.77;;;4.82;;
35522;SDS011;61478;50.820;4.330;2022-07-22T01:37:09;22.33;;;5.35;;
35522;SDS011;61478;50.820;4.330;2022-07-22T01:39:38;18.45;;;4.65;;
35522;SDS011;61478;50.820;4.330;2022-07-22T01:42:08;27.75;;;6.00;;
35522;SDS011;61478;50.820;4.330;2022-07-22T01:44:34;12.32;;;4.30;;
35522;SDS011;61478;50.820;4.330;2022-07-22T01:47:00;14.13;;;4.22;;
35522;SDS011;61478;50.820;4.330;2022-07-22T01:49:26;11.93;;;4.78;;
35522;SDS011;61478;50.820;4.330;2022-07-22T01:52:01;12.85;;;4.32;;
35522;SDS011;61478;50.820;4.330;2022-07-22T01:54:28;12.02;;;4.22;;
35522;SDS011;61478;50.820;4.330;2022-07-22T01:56:57;20.08;;;4.60;;
35522;SDS011;61478;50.820;4.330;2022-07-22T01:59:24;17.10;;;4.40;;
35522;SDS011;61478;50.820;4.330;2022-07-22T02:01:53;14.98;;;4.60;;
35522;SDS011;61478;50.820;4.330;2022-07-22T02:04:23;10.85;;;4.88;;
35522;SDS011;61478;50.820;4.330;2022-07-22T02:06:52;18.33;;;4.18;;
35522;SDS011;61478;50.820;4.330;2022-07-22T02:09:21;20.40;;;4.85;;
35522;SDS011;61478;50.820;4.330;2022-07-22T02:11:50;16.45;;;4.13;;
35522;SDS011;61478;50.820;4.330;2022-07-22T02:14:19;22.08;;;7.57;;
35522;SDS011;61478;50.820;4.330;2022-07-22T02:16:51;15.43;;;5.32;;
35522;SDS011;61478;50.820;4.330;2022-07-22T02:19:17;17.73;;;4.60;;
35522;SDS011;61478;50.820;4.330;2022-07-22T02:21:46;15.55;;;5.10;;
35522;SDS011;61478;50.820;4.330;2022-07-22T02:24:16;14.05;;;4.10;;
35522;SDS011;61478;50.820;4.330;2022-07-22T02:26:42;21.23;;;4.38;;
35522;SDS011;61478;50.820;4.330;2022-07-22T02:29:12;13.30;;;4.13;;
35522;SDS011;61478;50.820;4.330;2022-07-22T02:31:41;14.52;;;4.43;;
35522;SDS011;61478;50.820;4.330;2022-07-22T02:34:10;13.63;;;4.28;;
35522;SDS011;61478;50.820;4.330;2022-07-22T02:36:37;19.88;;;4.75;;
35522;SDS011;61478;50.820;4.330;2022-07-22T02:39:06;11.77;;;3.22;;
35522;SDS011;61478;50.820;4.330;2022-07-22T02:41:39;23.58;;;4.80;;
35522;SDS011;61478;50.820;4.330;2022-07-22T02:44:08;18.63;;;4.50;;
35522;SDS011;61478;50.820;4.330;2022-07-22T02:46:40;20.17;;;4.38;;
35522;SDS011;61478;50.820;4.330;2022-07-22T02:49:12;15.23;;;3.83;;
35522;SDS011;61478;50.820;4.330;2022-07-22T02:51:41;13.30;;;3.80;;
35522;SDS011;61478;50.820;4.330;2022-07-22T02:54:11;17.58;;;4.45;;
35522;SDS011;61478;50.820;4.330;2022-07-22T02:56:39;13.82;;;4.18;;
35522;SDS011;61478;50.820;4.330;2022-07-22T02:59:08;24.73;;;5.20;;
35522;SDS011;61478;50.820;4.330;2022-07-22T03:01:38;22.95;;;5.80;;
35522;SDS011;61478;50.820;4.330;2022-07-22T03:04:09;18.35;;;4.97;;
35522;SDS011;61478;50.820;4.330;2022-07-22T03:06:38;13.80;;;4.32;;
35522;SDS011;61478;50.820;4.330;2022-07-22T03:09:05;13.82;;;4.22;;
35522;SDS011;61478;50.820;4.330;2022-07-22T03:11:36;14.43;;;4.35;;
35522;SDS011;61478;50.820;4.330;2022-07-22T03:14:05;16.90;;;4.93;;
35522;SDS011;61478;50.820;4.330;2022-07-22T03:16:31;19.23;;;4.95;;
35522;SDS011;61478;50.820;4.330;2022-07-22T03:19:01;17.88;;;4.57;;
35522;SDS011;61478;50.820;4.330;2022-07-22T03:21:28;22.10;;;4.75;;
35522;SDS011;61478;50.820;4.330;2022-07-22T03:23:55;20.15;;;4.32;;
35522;SDS011;61478;50.820;4.330;2022-07-22T03:26:25;15.30;;;4.30;;
35522;SDS011;61478;50.820;4.330;2022-07-22T03:28:51;15.52;;;4.80;;
35522;SDS011;61478;50.820;4.330;2022-07-22T03:31:17;15.65;;;4.95;;
35522;SDS011;61478;50.820;4.330;2022-07-22T03:33:46;18.25;;;3.88;;
35522;SDS011;61478;50.820;4.330;2022-07-22T03:36:16;15.52;;;4.80;;
35522;SDS011;61478;50.820;4.330;2022-07-22T03:38:45;15.35;;;4.72;;
35522;SDS011;61478;50.820;4.330;2022-07-22T03:41:15;17.48;;;4.40;;
35522;SDS011;61478;50.820;4.330;2022-07-22T03:43:43;19.92;;;4.97;;
35522;SDS011;61478;50.820;4.330;2022-07-22T03:46:10;18.63;;;4.82;;
35522;SDS011;61478;50.820;4.330;2022-07-22T03:48:39;11.65;;;3.92;;
35522;SDS011;61478;50.820;4.330;2022-07-22T03:51:09;21.27;;;4.43;;
35522;SDS011;61478;50.820;4.330;2022-07-22T03:53:38;16.05;;;4.43;;
35522;SDS011;61478;50.820;4.330;2022-07-22T03:56:08;15.68;;;4.20;;
35522;SDS011;61478;50.820;4.330;2022-07-22T03:58:36;18.00;;;4.22;;
35522;SDS011;61478;50.820;4.330;2022-07-22T04:01:06;10.90;;;4.25;;
35522;SDS011;61478;50.820;4.330;2022-07-22T04:03:33;20.63;;;4.72;;
35522;SDS011;61478;50.820;4.330;2022-07-22T04:06:02;17.73;;;4.38;;
35522;SDS011;61478;50.820;4.330;2022-07-22T04:08:32;16.40;;;4.72;;
35522;SDS011;61478;50.820;4.330;2022-07-22T04:10:58;14.35;;;4.75;;
35522;SDS011;61478;50.820;4.330;2022-07-22T04:13:28;12.30;;;4.38;;
35522;SDS011;61478;50.820;4.330;2022-07-22T04:15:57;15.52;;;4.63;;
35522;SDS011;61478;50.820;4.330;2022-07-22T04:18:23;17.90;;;3.92;;
35522;SDS011;61478;50.820;4.330;2022-07-22T04:20:50;12.57;;;4.07;;
35522;SDS011;61478;50.820;4.330;2022-07-22T04:23:18;14.65;;;4.28;;
35522;SDS011;61478;50.820;4.330;2022-07-22T04:25:45;15.15;;;4.32;;
35522;SDS011;61478;50.820;4.330;2022-07-22T04:28:13;16.38;;;4.18;;
35522;SDS011;61478;50.820;4.330;2022-07-22T04:30:43;13.52;;;3.75;;
35522;SDS011;61478;50.820;4.330;2022-07-22T04:33:09;14.35;;;4.40;;
35522;SDS011;61478;50.820;4.330;2022-07-22T04:35:39;19.30;;;4.38;;
35522;SDS011;61478;50.820;4.330;2022-07-22T04:38:10;16.95;;;4.88;;
35522;SDS011;61478;50.820;4.330;2022-07-22T04:40:37;12.73;;;4.25;;
35522;SDS011;61478;50.820;4.330;2022-07-22T04:43:06;17.52;;;4.68;;
35522;SDS011;61478;50.820;4.330;2022-07-22T04:45:35;12.70;;;4.50;;
35522;SDS011;61478;50.820;4.330;2022-07-22T04:48:02;11.98;;;4.32;;
35522;SDS011;61478;50.820;4.330;2022-07-22T04:50:38;16.92;;;4.60;;
35522;SDS011;61478;50.820;4.330;2022-07-22T04:53:07;19.88;;;4.38;;
35522;SDS011;61478;50.820;4.330;2022-07-22T04:55:33;14.30;;;4.15;;
35522;SDS011;61478;50.820;4.330;2022-07-22T04:58:03;19.35;;;5.22;;
35522;SDS011;61478;50.820;4.330;2022-07-22T05:00:32;13.82;;;4.00;;
35522;SDS011;61478;50.820;4.330;2022-07-22T05:03:01;22.42;;;5.50;;
35522;SDS011;61478;50.820;4.330;2022-07-22T05:05:27;15.73;;;4.95;;
35522;SDS011;61478;50.820;4.330;2022-07-22T05:07:54;26.10;;;4.63;;
35522;SDS011;61478;50.820;4.330;2022-07-22T05:10:22;15.77;;;4.43;;
35522;SDS011;61478;50.820;4.330;2022-07-22T05:12:52;18.42;;;6.35;;
35522;SDS011;61478;50.820;4.330;2022-07-22T05:15:21;24.48;;;7.35;;
35522;SDS011;61478;50.820;4.330;2022-07-22T05:17:47;19.70;;;6.40;;
35522;SDS011;61478;50.820;4.330;2022-07-22T05:20:16;30.25;;;6.43;;
35522;SDS011;61478;50.820;4.330;2022-07-22T05:22:42;22.25;;;7.22;;
35522;SDS011;61478;50.820;4.330;2022-07-22T05:25:08;24.33;;;7.25;;
35522;SDS011;61478;50.820;4.330;2022-07-22T05:27:35;24.33;;;7.50;;
35522;SDS011;61478;50.820;4.330;2022-07-22T05:30:04;17.77;;;6.47;;
35522;SDS011;61478;50.820;4.330;2022-07-22T05:32:33;22.10;;;7.78;;
35522;SDS011;61478;50.820;4.330;2022-07-22T05:34:59;25.90;;;7.78;;
35522;SDS011;61478;50.820;4.330;2022-07-22T05:37:26;20.48;;;7.00;;
35522;SDS011;61478;50.820;4.330;2022-07-22T05:39:52;27.23;;;8.98;;
35522;SDS011;61478;50.820;4.330;2022-07-22T05:42:18;20.73;;;6.15;;
35522;SDS011;61478;50.820;4.330;2022-07-22T05:44:44;37.03;;;9.38;;
35522;SDS011;61478;50.820;4.330;2022-07-22T05:47:11;28.85;;;7.60;;
35522;SDS011;61478;50.820;4.330;2022-07-22T05:49:42;23.50;;;9.25;;
35522;SDS011;61478;50.820;4.330;2022-07-22T05:52:11;23.13;;;8.75;;
35522;SDS011;61478;50.820;4.330;2022-07-22T05:54:37;20.75;;;8.23;;
35522;SDS011;61478;50.820;4.330;2022-07-22T05:57:08;22.17;;;8.32;;
35522;SDS011;61478;50.820;4.330;2022-07-22T05:59:38;26.73;;;9.80;;
35522;SDS011;61478;50.820;4.330;2022-07-22T06:02:07;20.17;;;9.93;;
35522;SDS011;61478;50.820;4.330;2022-07-22T06:04:33;21.58;;;8.68;;
35522;SDS011;61478;50.820;4.330;2022-07-22T06:07:02;23.92;;;9.82;;
35522;SDS011;61478;50.820;4.330;2022-07-22T06:09:31;23.35;;;9.20;;
35522;SDS011;61478;50.820;4.330;2022-07-22T06:11:57;23.05;;;8.95;;
35522;SDS011;61478;50.820;4.330;2022-07-22T06:14:23;25.75;;;9.75;;
35522;SDS011;61478;50.820;4.330;2022-07-22T06:16:49;17.58;;;8.63;;
35522;SDS011;61478;50.820;4.330;2022-07-22T06:19:16;17.60;;;7.85;;
35522;SDS011;61478;50.820;4.330;2022-07-22T06:21:45;17.00;;;7.70;;
35522;SDS011;61478;50.820;4.330;2022-07-22T06:24:15;16.80;;;6.45;;
35522;SDS011;61478;50.820;4.330;2022-07-22T06:26:40;16.77;;;7.22;;
35522;SDS011;61478;50.820;4.330;2022-07-22T06:29:07;22.15;;;7.13;;
35522;SDS011;61478;50.820;4.330;2022-07-22T06:31:35;19.80;;;7.28;;
35522;SDS011;61478;50.820;4.330;2022-07-22T06:34:04;14.05;;;5.78;;
35522;SDS011;61478;50.820;4.330;2022-07-22T06:36:34;16.63;;;5.35;;
35522;SDS011;61478;50.820;4.330;2022-07-22T06:39:05;63.88;;;10.25;;
35522;SDS011;61478;50.820;4.330;2022-07-22T06:41:31;11.80;;;4.82;;
35522;SDS011;61478;50.820;4.330;2022-07-22T06:43:58;29.17;;;6.85;;
35522;SDS011;61478;50.820;4.330;2022-07-22T06:46:27;13.60;;;4.82;;
35522;SDS011;61478;50.820;4.330;2022-07-22T06:48:58;17.83;;;5.18;;
35522;SDS011;61478;50.820;4.330;2022-07-22T06:51:28;13.00;;;3.67;;
35522;SDS011;61478;50.820;4.330;2022-07-22T06:53:57;8.82;;;4.13;;
35522;SDS011;61478;50.820;4.330;2022-07-22T06:56:29;17.20;;;5.57;;
35522;SDS011;61478;50.820;4.330;2022-07-22T06:58:55;17.33;;;5.05;;
35522;SDS011;61478;50.820;4.330;2022-07-22T07:01:24;8.98;;;3.95;;
35522;SDS011;61478;50.820;4.330;2022-07-22T07:03:54;15.50;;;5.13;;
35522;SDS011;61478;50.820;4.330;2022-07-22T07:06:20;12.02;;;3.95;;
35522;SDS011;61478;50.820;4.330;2022-07-22T07:08:49;16.98;;;3.88;;
35522;SDS011;61478;50.820;4.330;2022-07-22T07:11:18;8.55;;;3.42;;
35522;SDS011;61478;50.820;4.330;2022-07-22T07:13:48;13.43;;;4.20;;
35522;SDS011;61478;50.820;4.330;2022-07-22T07:16:14;12.02;;;4.65;;
35522;SDS011;61478;50.820;4.330;2022-07-22T07:18:43;17.40;;;4.70;;
35522;SDS011;61478;50.820;4.330;2022-07-22T07:21:12;8.60;;;4.40;;
35522;SDS011;61478;50.820;4.330;2022-07-22T07:23:38;13.75;;;3.53;;
35522;SDS011;61478;50.820;4.330;2022-07-22T07:26:04;8.75;;;3.88;;
35522;SDS011;61478;50.820;4.330;2022-07-22T07:28:34;13.02;;;4.88;;
35522;SDS011;61478;50.820;4.330;2022-07-22T07:31:01;11.43;;;4.18;;
35522;SDS011;61478;50.820;4.330;2022-07-22T07:33:27;19.60;;;4.68;;
35522;SDS011;61478;50.820;4.330;2022-07-22T07:35:56;10.65;;;4.50;;
35522;SDS011;61478;50.820;4.330;2022-07-22T07:38:22;11.48;;;3.70;;
35522;SDS011;61478;50.820;4.330;2022-07-22T07:40:48;9.68;;;3.92;;
35522;SDS011;61478;50.820;4.330;2022-07-22T07:43:14;9.40;;;4.28;;
35522;SDS011;61478;50.820;4.330;2022-07-22T07:45:44;9.95;;;4.13;;
35522;SDS011;61478;50.820;4.330;2022-07-22T07:48:13;10.20;;;3.63;;
35522;SDS011;61478;50.820;4.330;2022-07-22T07:50:42;18.38;;;4.47;;
35522;SDS011;61478;50.820;4.330;2022-07-22T07:53:09;13.30;;;3.70;;
35522;SDS011;61478;50.820;4.330;2022-07-22T07:55:39;11.30;;;4.60;;
35522;SDS011;61478;50.820;4.330;2022-07-22T07:58:06;7.45;;;3.92;;
35522;SDS011;61478;50.820;4.330;2022-07-22T08:00:36;14.65;;;3.95;;
35522;SDS011;61478;50.820;4.330;2022-07-22T08:03:10;7.05;;;3.63;;
35522;SDS011;61478;50.820;4.330;2022-07-22T08:05:39;11.95;;;4.22;;
35522;SDS011;61478;50.820;4.330;2022-07-22T08:08:12;13.52;;;4.50;;
35522;SDS011;61478;50.820;4.330;2022-07-22T08:10:38;11.07;;;3.90;;
35522;SDS011;61478;50.820;4.330;2022-07-22T08:13:03;8.52;;;3.65;;
35522;SDS011;61478;50.820;4.330;2022-07-22T08:15:32;8.90;;;3.55;;
35522;SDS011;61478;50.820;4.330;2022-07-22T08:18:02;9.07;;;4.18;;
35522;SDS011;61478;50.820;4.330;2022-07-22T08:20:28;9.20;;;3.47;;
35522;SDS011;61478;50.820;4.330;2022-07-22T08:22:54;10.27;;;3.65;;
35522;SDS011;61478;50.820;4.330;2022-07-22T08:25:21;10.40;;;3.50;;
35522;SDS011;61478;50.820;4.330;2022-07-22T08:27:51;11.05;;;3.63;;
35522;SDS011;61478;50.820;4.330;2022-07-22T08:30:20;8.52;;;3.72;;
35522;SDS011;61478;50.820;4.330;2022-07-22T08:32:52;9.30;;;4.38;;
35522;SDS011;61478;50.820;4.330;2022-07-22T08:35:18;10.00;;;3.65;;
35522;SDS011;61478;50.820;4.330;2022-07-22T08:37:45;8.13;;;3.30;;
35522;SDS011;61478;50.820;4.330;2022-07-22T08:40:13;10.52;;;3.72;;
35522;SDS011;61478;50.820;4.330;2022-07-22T08:42:44;7.97;;;4.20;;
35522;SDS011;61478;50.820;4.330;2022-07-22T08:45:15;8.07;;;3.60;;
35522;SDS011;61478;50.820;4.330;2022-07-22T08:47:43;11.23;;;3.55;;
35522;SDS011;61478;50.820;4.330;2022-07-22T08:50:10;12.38;;;3.60;;
35522;SDS011;61478;50.820;4.330;2022-07-22T08:52:36;11.48;;;3.83;;
35522;SDS011;61478;50.820;4.330;2022-07-22T08:55:06;13.93;;;5.40;;
35522;SDS011;61478;50.820;4.330;2022-07-22T08:57:33;10.27;;;4.53;;
35522;SDS011;61478;50.820;4.330;2022-07-22T09:00:08;17.65;;;4.60;;
35522;SDS011;61478;50.820;4.330;2022-07-22T09:02:39;8.50;;;3.70;;
35522;SDS011;61478;50.820;4.330;2022-07-22T09:05:08;9.07;;;3.85;;
35522;SDS011;61478;50.820;4.330;2022-07-22T09:07:40;8.23;;;4.57;;
35522;SDS011;61478;50.820;4.330;2022-07-22T09:10:14;10.32;;;4.43;;
35522;SDS011;61478;50.820;4.330;2022-07-22T09:12:57;9.20;;;4.18;;
35522;SDS011;61478;50.820;4.330;2022-07-22T09:15:25;7.85;;;3.83;;
35522;SDS011;61478;50.820;4.330;2022-07-22T09:17:57;9.70;;;4.43;;
35522;SDS011;61478;50.820;4.330;2022-07-22T09:20:26;9.60;;;4.85;;
35522;SDS011;61478;50.820;4.330;2022-07-22T09:22:53;12.55;;;4.25;;
35522;SDS011;61478;50.820;4.330;2022-07-22T09:25:30;6.72;;;3.58;;
35522;SDS011;61478;50.820;4.330;2022-07-22T09:30:40;8.43;;;3.70;;
35522;SDS011;61478;50.820;4.330;2022-07-22T09:33:11;16.88;;;4.53;;
35522;SDS011;61478;50.820;4.330;2022-07-22T09:35:37;7.95;;;3.88;;
35522;SDS011;61478;50.820;4.330;2022-07-22T09:38:05;7.88;;;3.30;;
35522;SDS011;61478;50.820;4.330;2022-07-22T09:40:37;10.13;;;4.13;;
35522;SDS011;61478;50.820;4.330;2022-07-22T09:43:11;8.73;;;3.90;;
35522;SDS011;61478;50.820;4.330;2022-07-22T09:45:46;6.13;;;3.50;;
35522;SDS011;61478;50.820;4.330;2022-07-22T09:48:15;9.98;;;3.72;;
35522;SDS011;61478;50.820;4.330;2022-07-22T09:50:43;8.02;;;3.28;;
35522;SDS011;61478;50.820;4.330;2022-07-22T09:53:10;8.05;;;3.78;;
35522;SDS011;61478;50.820;4.330;2022-07-22T09:55:38;8.93;;;3.80;;
35522;SDS011;61478;50.820;4.330;2022-07-22T09:58:10;6.18;;;3.45;;
35522;SDS011;61478;50.820;4.330;2022-07-22T10:00:44;8.73;;;3.38;;
35522;SDS011;61478;50.820;4.330;2022-07-22T10:03:19;10.07;;;3.25;;
35522;SDS011;61478;50.820;4.330;2022-07-22T10:06:02;10.13;;;4.03;;
35522;SDS011;61478;50.820;4.330;2022-07-22T10:08:35;10.40;;;3.45;;
35522;SDS011;61478;50.820;4.330;2022-07-22T10:11:05;6.13;;;3.15;;
35522;SDS011;61478;50.820;4.330;2022-07-22T10:13:35;11.32;;;3.40;;
35522;SDS011;61478;50.820;4.330;2022-07-22T10:16:04;6.97;;;3.03;;
35522;SDS011;61478;50.820;4.330;2022-07-22T10:18:31;8.77;;;3.58;;
35522;SDS011;61478;50.820;4.330;2022-07-22T10:21:15;9.75;;;3.20;;
35522;SDS011;61478;50.820;4.330;2022-07-22T10:34:41;6.07;;;3.15;;
35522;SDS011;61478;50.820;4.330;2022-07-22T10:45:27;7.60;;;3.38;;
35522;SDS011;61478;50.820;4.330;2022-07-22T10:47:56;6.60;;;3.53;;
35522;SDS011;61478;50.820;4.330;2022-07-22T10:53:01;10.85;;;3.38;;
35522;SDS011;61478;50.820;4.330;2022-07-22T10:55:28;7.15;;;3.42;;
35522;SDS011;61478;50.820;4.330;2022-07-22T10:57:54;6.45;;;3.75;;
35522;SDS011;61478;50.820;4.330;2022-07-22T11:00:28;11.98;;;3.83;;
35522;SDS011;61478;50.820;4.330;2022-07-22T11:03:00;7.82;;;4.00;;
35522;SDS011;61478;50.820;4.330;2022-07-22T11:05:27;6.68;;;3.20;;
35522;SDS011;61478;50.820;4.330;2022-07-22T11:07:57;12.48;;;4.13;;
35522;SDS011;61478;50.820;4.330;2022-07-22T11:10:23;8.70;;;3.70;;
35522;SDS011;61478;50.820;4.330;2022-07-22T11:12:57;8.55;;;3.75;;
35522;SDS011;61478;50.820;4.330;2022-07-22T11:15:38;9.63;;;3.78;;
35522;SDS011;61478;50.820;4.330;2022-07-22T11:18:04;12.73;;;4.15;;
35522;SDS011;61478;50.820;4.330;2022-07-22T11:20:30;9.75;;;4.28;;
35522;SDS011;61478;50.820;4.330;2022-07-22T11:22:57;12.68;;;3.60;;
35522;SDS011;61478;50.820;4.330;2022-07-22T11:25:25;5.32;;;3.47;;
35522;SDS011;61478;50.820;4.330;2022-07-22T11:27:52;6.00;;;3.47;;
35522;SDS011;61478;50.820;4.330;2022-07-22T11:30:18;9.30;;;3.83;;
35522;SDS011;61478;50.820;4.330;2022-07-22T11:32:44;7.45;;;4.05;;
35522;SDS011;61478;50.820;4.330;2022-07-22T11:35:11;11.63;;;4.07;;
35522;SDS011;61478;50.820;4.330;2022-07-22T11:37:38;9.15;;;4.20;;
35522;SDS011;61478;50.820;4.330;2022-07-22T11:40:08;8.52;;;4.05;;
35522;SDS011;61478;50.820;4.330;2022-07-22T11:42:35;7.68;;;3.67;;
35522;SDS011;61478;50.820;4.330;2022-07-22T11:45:01;9.02;;;4.47;;
35522;SDS011;61478;50.820;4.330;2022-07-22T11:47:27;5.63;;;3.55;;
35522;SDS011;61478;50.820;4.330;2022-07-22T11:49:53;8.90;;;3.88;;
35522;SDS011;61478;50.820;4.330;2022-07-22T11:52:19;12.27;;;4.90;;
35522;SDS011;61478;50.820;4.330;2022-07-22T11:54:45;15.13;;;5.00;;
35522;SDS011;61478;50.820;4.330;2022-07-22T11:57:12;8.93;;;3.65;;
35522;SDS011;61478;50.820;4.330;2022-07-22T11:59:38;5.78;;;3.70;;
35522;SDS011;61478;50.820;4.330;2022-07-22T12:02:04;10.55;;;4.22;;
35522;SDS011;61478;50.820;4.330;2022-07-22T12:04:36;8.27;;;3.67;;
35522;SDS011;61478;50.820;4.330;2022-07-22T12:07:03;7.93;;;3.60;;
35522;SDS011;61478;50.820;4.330;2022-07-22T12:09:33;9.63;;;4.32;;
35522;SDS011;61478;50.820;4.330;2022-07-22T12:12:01;10.18;;;3.85;;
35522;SDS011;61478;50.820;4.330;2022-07-22T12:14:32;10.27;;;4.40;;
35522;SDS011;61478;50.820;4.330;2022-07-22T12:17:08;10.15;;;4.03;;
35522;SDS011;61478;50.820;4.330;2022-07-22T12:19:36;8.38;;;3.85;;
35522;SDS011;61478;50.820;4.330;2022-07-22T12:22:07;9.18;;;3.95;;
35522;SDS011;61478;50.820;4.330;2022-07-22T12:24:36;8.25;;;3.95;;
35522;SDS011;61478;50.820;4.330;2022-07-22T12:27:05;11.55;;;4.85;;
35522;SDS011;61478;50.820;4.330;2022-07-22T12:29:41;8.13;;;4.40;;
35522;SDS011;61478;50.820;4.330;2022-07-22T12:32:09;10.65;;;4.22;;
35522;SDS011;61478;50.820;4.330;2022-07-22T12:37:28;19.95;;;5.20;;
35522;SDS011;61478;50.820;4.330;2022-07-22T12:40:00;11.18;;;4.25;;
35522;SDS011;61478;50.820;4.330;2022-07-22T12:42:36;7.20;;;4.55;;
35522;SDS011;61478;50.820;4.330;2022-07-22T12:45:06;11.27;;;4.05;;
35522;SDS011;61478;50.820;4.330;2022-07-22T12:47:40;8.13;;;4.38;;
35522;SDS011;61478;50.820;4.330;2022-07-22T12:50:28;10.60;;;4.88;;
35522;SDS011;61478;50.820;4.330;2022-07-22T12:52:56;8.02;;;4.53;;
35522;SDS011;61478;50.820;4.330;2022-07-22T12:55:23;7.90;;;4.80;;
35522;SDS011;61478;50.820;4.330;2022-07-22T12:57:50;11.13;;;3.95;;
35522;SDS011;61478;50.820;4.330;2022-07-22T13:00:26;7.78;;;4.28;;
35522;SDS011;61478;50.820;4.330;2022-07-22T13:03:02;11.07;;;4.80;;
35522;SDS011;61478;50.820;4.330;2022-07-22T13:05:29;8.10;;;4.10;;
35522;SDS011;61478;50.820;4.330;2022-07-22T13:07:55;10.45;;;4.70;;
35522;SDS011;61478;50.820;4.330;2022-07-22T13:10:22;10.73;;;3.90;;
35522;SDS011;61478;50.820;4.330;2022-07-22T13:12:50;5.72;;;4.20;;
35522;SDS011;61478;50.820;4.330;2022-07-22T13:15:16;6.63;;;4.22;;
35522;SDS011;61478;50.820;4.330;2022-07-22T13:17:43;6.63;;;4.32;;
35522;SDS011;61478;50.820;4.330;2022-07-22T13:20:09;10.93;;;4.55;;
35522;SDS011;61478;50.820;4.330;2022-07-22T13:22:37;7.75;;;3.80;;
35522;SDS011;61478;50.820;4.330;2022-07-22T13:25:06;10.32;;;4.75;;
35522;SDS011;61478;50.820;4.330;2022-07-22T13:27:33;8.00;;;4.28;;
35522;SDS011;61478;50.820;4.330;2022-07-22T13:29:59;11.63;;;4.65;;
35522;SDS011;61478;50.820;4.330;2022-07-22T13:32:25;16.38;;;4.60;;
35522;SDS011;61478;50.820;4.330;2022-07-22T13:34:51;8.93;;;4.05;;
35522;SDS011;61478;50.820;4.330;2022-07-22T13:37:17;9.65;;;5.15;;
35522;SDS011;61478;50.820;4.330;2022-07-22T13:39:43;7.40;;;3.90;;
35522;SDS011;61478;50.820;4.330;2022-07-22T13:42:12;8.32;;;4.57;;
35522;SDS011;61478;50.820;4.330;2022-07-22T13:44:39;8.45;;;5.38;;
35522;SDS011;61478;50.820;4.330;2022-07-22T13:47:05;7.07;;;3.55;;
35522;SDS011;61478;50.820;4.330;2022-07-22T13:49:31;10.32;;;5.18;;
35522;SDS011;61478;50.820;4.330;2022-07-22T13:51:57;9.90;;;5.47;;
35522;SDS011;61478;50.820;4.330;2022-07-22T13:54:23;11.32;;;5.07;;
35522;SDS011;61478;50.820;4.330;2022-07-22T13:56:49;9.30;;;4.60;;
35522;SDS011;61478;50.820;4.330;2022-07-22T13:59:15;13.75;;;4.60;;
35522;SDS011;61478;50.820;4.330;2022-07-22T14:01:41;10.38;;;4.90;;
35522;SDS011;61478;50.820;4.330;2022-07-22T14:04:08;10.63;;;4.68;;
35522;SDS011;61478;50.820;4.330;2022-07-22T14:06:34;7.95;;;4.57;;
35522;SDS011;61478;50.820;4.330;2022-07-22T14:09:00;10.65;;;4.45;;
35522;SDS011;61478;50.820;4.330;2022-07-22T14:11:28;9.90;;;4.68;;
35522;SDS011;61478;50.820;4.330;2022-07-22T14:13:54;8.30;;;3.80;;
35522;SDS011;61478;50.820;4.330;2022-07-22T14:16:20;8.05;;;4.32;;
35522;SDS011;61478;50.820;4.330;2022-07-22T14:21:38;5.93;;;4.05;;
35522;SDS011;61478;50.820;4.330;2022-07-22T14:24:08;9.85;;;3.70;;
35522;SDS011;61478;50.820;4.330;2022-07-22T14:26:35;8.48;;;4.32;;
35522;SDS011;61478;50.820;4.330;2022-07-22T14:29:02;9.00;;;3.63;;
35522;SDS011;61478;50.820;4.330;2022-07-22T14:31:32;10.88;;;4.13;;
35522;SDS011;61478;50.820;4.330;2022-07-22T14:33:59;7.13;;;3.75;;
35522;SDS011;61478;50.820;4.330;2022-07-22T14:36:25;7.18;;;3.63;;
35522;SDS011;61478;50.820;4.330;2022-07-22T14:38:54;9.18;;;4.93;;
35522;SDS011;61478;50.820;4.330;2022-07-22T14:41:23;11.60;;;4.20;;
35522;SDS011;61478;50.820;4.330;2022-07-22T14:43:49;8.40;;;3.60;;
35522;SDS011;61478;50.820;4.330;2022-07-22T14:46:14;9.85;;;3.80;;
35522;SDS011;61478;50.820;4.330;2022-07-22T14:48:40;9.27;;;4.35;;
35522;SDS011;61478;50.820;4.330;2022-07-22T14:51:07;11.68;;;4.25;;
35522;SDS011;61478;50.820;4.330;2022-07-22T14:53:33;5.72;;;4.20;;
35522;SDS011;61478;50.820;4.330;2022-07-22T14:55:59;8.27;;;4.40;;
35522;SDS011;61478;50.820;4.330;2022-07-22T14:58:25;7.90;;;4.97;;
35522;SDS011;61478;50.820;4.330;2022-07-22T15:00:51;7.32;;;4.35;;
35522;SDS011;61478;50.820;4.330;2022-07-22T15:03:17;10.77;;;4.45;;
35522;SDS011;61478;50.820;4.330;2022-07-22T15:05:46;10.63;;;4.55;;
35522;SDS011;61478;50.820;4.330;2022-07-22T15:08:15;6.47;;;3.72;;
35522;SDS011;61478;50.820;4.330;2022-07-22T15:10:43;8.35;;;4.70;;
35522;SDS011;61478;50.820;4.330;2022-07-22T15:13:08;6.60;;;3.72;;
35522;SDS011;61478;50.820;4.330;2022-07-22T15:15:34;13.20;;;4.45;;